sensor_id;sensor_type;location;lat;lon;timestamp;temperature;humidity
59148;DHT22;44930;52.878;6.168;2023-03-01T00:06:42;-0.70;99.90
59148;DHT22;44930;52.878;6.168;2023-03-01T00:18:55;-0.20;99.90
59148;DHT22;44930;52.878;6.168;2023-03-01T00:31:12;-1.00;99.90
59148;DHT22;44930;52.878;6.168;2023-03-01T00:38:33;-0.80;99.90
59148;DHT22;44930;52.878;6.168;2023-03-01T00:41:13;-1.00;99.90
59148;DHT22;44930;52.878;6.168;2023-03-01T00:51:07;-0.70;99.90
59148;DHT22;44930;52.878;6.168;2023-03-01T01:15:27;-1.20;99.90
59148;DHT22;44930;52.878;6.168;2023-03-01T01:27:38;-1.30;99.90
59148;DHT22;44930;52.878;6.168;2023-03-01T01:44:44;-1.10;99.90
59148;DHT22;44930;52.878;6.168;2023-03-01T01:49:53;-1.30;99.90
59148;DHT22;44930;52.878;6.168;2023-03-01T01:52:40;-1.50;99.90
59148;DHT22;44930;52.878;6.168;2023-03-01T01:55:10;-1.10;99.90
59148;DHT22;44930;52.878;6.168;2023-03-01T02:05:11;-1.40;99.90
59148;DHT22;44930;52.878;6.168;2023-03-01T02:07:39;-1.40;99.90
59148;DHT22;44930;52.878;6.168;2023-03-01T02:10:06;-1.10;99.90
59148;DHT22;44930;52.878;6.168;2023-03-01T02:20:11;-1.50;99.90
59148;DHT22;44930;52.878;6.168;2023-03-01T02:35:12;-1.50;99.90
59148;DHT22;44930;52.878;6.168;2023-03-01T02:37:39;-1.50;99.90
59148;DHT22;44930;52.878;6.168;2023-03-01T02:40:11;-1.30;99.90
59148;DHT22;44930;52.878;6.168;2023-03-01T02:42:51;-2.00;99.90
59148;DHT22;44930;52.878;6.168;2023-03-01T02:53:28;-1.60;99.90
59148;DHT22;44930;52.878;6.168;2023-03-01T03:03:17;-1.20;99.90
59148;DHT22;44930;52.878;6.168;2023-03-01T03:13:07;-1.60;99.90
59148;DHT22;44930;52.878;6.168;2023-03-01T03:20:29;-1.60;99.90
59148;DHT22;44930;52.878;6.168;2023-03-01T03:32:44;-2.30;99.90
59148;DHT22;44930;52.878;6.168;2023-03-01T03:57:38;-2.20;99.90
59148;DHT22;44930;52.878;6.168;2023-03-01T04:00:05;-2.20;99.90
59148;DHT22;44930;52.878;6.168;2023-03-01T04:41:39;-2.90;99.90
59148;DHT22;44930;52.878;6.168;2023-03-01T05:16:01;-2.50;99.90
59148;DHT22;44930;52.878;6.168;2023-03-01T05:35:42;-3.30;99.90
59148;DHT22;44930;52.878;6.168;2023-03-01T05:38:09;-2.60;99.90
59148;DHT22;44930;52.878;6.168;2023-03-01T05:52:59;-2.60;99.90
59148;DHT22;44930;52.878;6.168;2023-03-01T06:05:12;-3.00;99.90
59148;DHT22;44930;52.878;6.168;2023-03-01T06:46:36;-3.20;99.90
59148;DHT22;44930;52.878;6.168;2023-03-01T08:14:27;-1.00;99.90
59148;DHT22;44930;52.878;6.168;2023-03-01T08:31:33;-0.10;99.90
59148;DHT22;44930;52.878;6.168;2023-03-01T08:34:03;-0.10;99.90
59148;DHT22;44930;52.878;6.168;2023-03-01T08:36:32;0.10;99.90
59148;DHT22;44930;52.878;6.168;2023-03-01T08:38:58;0.10;99.90
59148;DHT22;44930;52.878;6.168;2023-03-01T08:41:24;0.20;99.90
59148;DHT22;44930;52.878;6.168;2023-03-01T08:43:50;0.50;99.90
59148;DHT22;44930;52.878;6.168;2023-03-01T08:46:16;0.50;99.90
59148;DHT22;44930;52.878;6.168;2023-03-01T08:48:41;0.60;99.90
59148;DHT22;44930;52.878;6.168;2023-03-01T08:51:18;0.90;99.90
59148;DHT22;44930;52.878;6.168;2023-03-01T08:53:44;0.80;99.90
59148;DHT22;44930;52.878;6.168;2023-03-01T08:58:36;1.20;99.90
59148;DHT22;44930;52.878;6.168;2023-03-01T09:01:07;1.80;99.90
59148;DHT22;44930;52.878;6.168;2023-03-01T09:03:33;1.30;99.90
59148;DHT22;44930;52.878;6.168;2023-03-01T09:08:29;1.70;99.90
59148;DHT22;44930;52.878;6.168;2023-03-01T09:10:55;1.70;99.90
59148;DHT22;44930;52.878;6.168;2023-03-01T09:13:21;1.80;99.90
59148;DHT22;44930;52.878;6.168;2023-03-01T09:15:49;2.00;99.90
59148;DHT22;44930;52.878;6.168;2023-03-01T09:18:14;2.00;99.90
59148;DHT22;44930;52.878;6.168;2023-03-01T09:20:40;2.20;99.90
59148;DHT22;44930;52.878;6.168;2023-03-01T09:23:06;2.30;99.90
59148;DHT22;44930;52.878;6.168;2023-03-01T09:25:33;2.20;99.90
59148;DHT22;44930;52.878;6.168;2023-03-01T09:32:50;2.40;99.90
59148;DHT22;44930;52.878;6.168;2023-03-01T09:35:16;2.40;99.90
59148;DHT22;44930;52.878;6.168;2023-03-01T09:40:15;2.70;99.90
59148;DHT22;44930;52.878;6.168;2023-03-01T09:45:34;2.50;99.90
59148;DHT22;44930;52.878;6.168;2023-03-01T09:48:01;2.80;99.90
59148;DHT22;44930;52.878;6.168;2023-03-01T09:50:34;2.80;99.90
59148;DHT22;44930;52.878;6.168;2023-03-01T09:53:10;2.80;99.90
59148;DHT22;44930;52.878;6.168;2023-03-01T09:55:38;3.10;99.90
59148;DHT22;44930;52.878;6.168;2023-03-01T09:58:39;3.40;99.90
59148;DHT22;44930;52.878;6.168;2023-03-01T10:06:32;3.50;99.90
59148;DHT22;44930;52.878;6.168;2023-03-01T10:09:01;3.60;99.90
59148;DHT22;44930;52.878;6.168;2023-03-01T10:11:31;3.70;99.90
59148;DHT22;44930;52.878;6.168;2023-03-01T10:14:12;3.80;99.90
59148;DHT22;44930;52.878;6.168;2023-03-01T10:16:50;4.00;99.90
59148;DHT22;44930;52.878;6.168;2023-03-01T10:21:49;4.00;99.90
59148;DHT22;44930;52.878;6.168;2023-03-01T10:26:51;4.40;99.90
59148;DHT22;44930;52.878;6.168;2023-03-01T10:29:41;4.20;99.90
59148;DHT22;44930;52.878;6.168;2023-03-01T10:32:09;4.40;99.90
59148;DHT22;44930;52.878;6.168;2023-03-01T10:34:36;4.60;99.90
59148;DHT22;44930;52.878;6.168;2023-03-01T10:39:35;4.70;99.90
59148;DHT22;44930;52.878;6.168;2023-03-01T10:42:04;4.80;99.90
59148;DHT22;44930;52.878;6.168;2023-03-01T10:44:44;4.90;99.90
59148;DHT22;44930;52.878;6.168;2023-03-01T10:47:28;4.80;99.90
59148;DHT22;44930;52.878;6.168;2023-03-01T10:49:56;5.00;99.90
59148;DHT22;44930;52.878;6.168;2023-03-01T10:52:37;5.00;99.90
59148;DHT22;44930;52.878;6.168;2023-03-01T10:55:25;5.20;99.90
59148;DHT22;44930;52.878;6.168;2023-03-01T10:58:20;5.40;99.90
59148;DHT22;44930;52.878;6.168;2023-03-01T11:00:52;5.30;99.90
59148;DHT22;44930;52.878;6.168;2023-03-01T11:03:28;5.30;99.90
59148;DHT22;44930;52.878;6.168;2023-03-01T11:06:03;5.30;99.90
59148;DHT22;44930;52.878;6.168;2023-03-01T11:11:14;5.50;99.90
59148;DHT22;44930;52.878;6.168;2023-03-01T11:13:53;5.90;99.90
59148;DHT22;44930;52.878;6.168;2023-03-01T11:16:32;5.50;99.90
59148;DHT22;44930;52.878;6.168;2023-03-01T11:19:15;5.80;99.90
59148;DHT22;44930;52.878;6.168;2023-03-01T11:21:50;5.70;99.90
59148;DHT22;44930;52.878;6.168;2023-03-01T11:26:51;5.70;99.90
59148;DHT22;44930;52.878;6.168;2023-03-01T11:29:35;5.60;99.90
59148;DHT22;44930;52.878;6.168;2023-03-01T11:32:06;5.50;99.90
59148;DHT22;44930;52.878;6.168;2023-03-01T11:34:43;5.90;99.90
59148;DHT22;44930;52.878;6.168;2023-03-01T11:48:06;5.90;99.90
59148;DHT22;44930;52.878;6.168;2023-03-01T11:58:45;6.30;99.90
59148;DHT22;44930;52.878;6.168;2023-03-01T12:01:15;6.40;99.90
59148;DHT22;44930;52.878;6.168;2023-03-01T12:06:50;6.50;99.90
59148;DHT22;44930;52.878;6.168;2023-03-01T12:25:48;6.90;99.90
59148;DHT22;44930;52.878;6.168;2023-03-01T12:31:33;7.20;99.90
59148;DHT22;44930;52.878;6.168;2023-03-01T12:34:21;7.00;99.90
59148;DHT22;44930;52.878;6.168;2023-03-01T12:50:42;7.10;99.90
59148;DHT22;44930;52.878;6.168;2023-03-01T12:53:37;7.20;99.90
59148;DHT22;44930;52.878;6.168;2023-03-01T12:56:13;6.90;99.90
59148;DHT22;44930;52.878;6.168;2023-03-01T13:04:20;7.60;99.90
59148;DHT22;44930;52.878;6.168;2023-03-01T13:11:53;7.30;99.90
59148;DHT22;44930;52.878;6.168;2023-03-01T13:16:54;7.30;99.90
59148;DHT22;44930;52.878;6.168;2023-03-01T13:19:25;7.30;99.90
59148;DHT22;44930;52.878;6.168;2023-03-01T13:21:53;7.30;99.90
59148;DHT22;44930;52.878;6.168;2023-03-01T13:24:33;7.50;99.90
59148;DHT22;44930;52.878;6.168;2023-03-01T13:32:33;7.20;99.90
59148;DHT22;44930;52.878;6.168;2023-03-01T13:35:03;7.40;99.90
59148;DHT22;44930;52.878;6.168;2023-03-01T13:37:48;7.40;99.90
59148;DHT22;44930;52.878;6.168;2023-03-01T13:42:54;7.40;99.90
59148;DHT22;44930;52.878;6.168;2023-03-01T13:45:24;7.60;99.90
59148;DHT22;44930;52.878;6.168;2023-03-01T13:47:57;7.70;99.90
59148;DHT22;44930;52.878;6.168;2023-03-01T13:50:38;7.70;99.90
59148;DHT22;44930;52.878;6.168;2023-03-01T13:53:14;7.40;99.90
59148;DHT22;44930;52.878;6.168;2023-03-01T13:55:43;7.40;99.90
59148;DHT22;44930;52.878;6.168;2023-03-01T13:58:31;7.70;99.90
59148;DHT22;44930;52.878;6.168;2023-03-01T14:03:28;7.50;99.90
59148;DHT22;44930;52.878;6.168;2023-03-01T14:06:07;7.50;99.90
59148;DHT22;44930;52.878;6.168;2023-03-01T14:27:01;7.90;99.90
59148;DHT22;44930;52.878;6.168;2023-03-01T14:29:36;8.10;99.90
59148;DHT22;44930;52.878;6.168;2023-03-01T14:34:35;8.00;99.90
59148;DHT22;44930;52.878;6.168;2023-03-01T14:39:36;8.10;99.90
59148;DHT22;44930;52.878;6.168;2023-03-01T14:42:04;8.00;99.90
59148;DHT22;44930;52.878;6.168;2023-03-01T14:44:30;8.20;99.90
59148;DHT22;44930;52.878;6.168;2023-03-01T14:46:59;8.10;99.90
59148;DHT22;44930;52.878;6.168;2023-03-01T14:49:30;8.30;99.90
59148;DHT22;44930;52.878;6.168;2023-03-01T14:52:05;8.40;99.90
59148;DHT22;44930;52.878;6.168;2023-03-01T14:54:41;8.50;99.90
59148;DHT22;44930;52.878;6.168;2023-03-01T14:57:23;8.40;99.90
59148;DHT22;44930;52.878;6.168;2023-03-01T14:59:54;8.30;99.90
59148;DHT22;44930;52.878;6.168;2023-03-01T15:02:23;8.40;99.90
59148;DHT22;44930;52.878;6.168;2023-03-01T15:04:52;8.50;99.90
59148;DHT22;44930;52.878;6.168;2023-03-01T15:09:45;8.60;99.90
59148;DHT22;44930;52.878;6.168;2023-03-01T15:14:57;8.70;99.90
59148;DHT22;44930;52.878;6.168;2023-03-01T15:20:06;8.60;99.90
59148;DHT22;44930;52.878;6.168;2023-03-01T15:22:43;8.60;99.90
59148;DHT22;44930;52.878;6.168;2023-03-01T15:25:23;8.60;99.90
59148;DHT22;44930;52.878;6.168;2023-03-01T15:27:51;8.80;99.90
59148;DHT22;44930;52.878;6.168;2023-03-01T15:35:49;8.70;99.90
59148;DHT22;44930;52.878;6.168;2023-03-01T15:38:36;8.50;99.90
59148;DHT22;44930;52.878;6.168;2023-03-01T15:41:46;8.70;99.90
59148;DHT22;44930;52.878;6.168;2023-03-01T15:44:34;9.10;99.90
59148;DHT22;44930;52.878;6.168;2023-03-01T15:47:00;9.60;99.90
59148;DHT22;44930;52.878;6.168;2023-03-01T15:51:58;10.50;99.90
59148;DHT22;44930;52.878;6.168;2023-03-01T15:54:25;10.60;99.90
59148;DHT22;44930;52.878;6.168;2023-03-01T15:56:51;10.80;99.90
59148;DHT22;44930;52.878;6.168;2023-03-01T15:59:18;10.60;99.90
59148;DHT22;44930;52.878;6.168;2023-03-01T16:01:44;10.10;99.90
59148;DHT22;44930;52.878;6.168;2023-03-01T16:04:15;9.80;99.90
59148;DHT22;44930;52.878;6.168;2023-03-01T16:06:50;9.30;99.90
59148;DHT22;44930;52.878;6.168;2023-03-01T16:09:21;8.80;99.90
59148;DHT22;44930;52.878;6.168;2023-03-01T16:11:47;8.50;99.90
59148;DHT22;44930;52.878;6.168;2023-03-01T16:14:13;8.30;99.90
59148;DHT22;44930;52.878;6.168;2023-03-01T16:16:40;8.10;99.90
59148;DHT22;44930;52.878;6.168;2023-03-01T16:21:31;7.80;99.90
59148;DHT22;44930;52.878;6.168;2023-03-01T16:23:56;7.50;99.90
59148;DHT22;44930;52.878;6.168;2023-03-01T16:28:48;7.20;99.90
59148;DHT22;44930;52.878;6.168;2023-03-01T16:31:18;7.00;99.90
59148;DHT22;44930;52.878;6.168;2023-03-01T16:33:44;6.90;99.90
59148;DHT22;44930;52.878;6.168;2023-03-01T16:36:15;6.90;99.90
59148;DHT22;44930;52.878;6.168;2023-03-01T16:41:13;6.30;99.90
59148;DHT22;44930;52.878;6.168;2023-03-01T16:43:39;6.90;99.90
59148;DHT22;44930;52.878;6.168;2023-03-01T16:46:11;6.70;99.90
59148;DHT22;44930;52.878;6.168;2023-03-01T16:48:37;6.60;99.90
59148;DHT22;44930;52.878;6.168;2023-03-01T16:51:03;6.60;99.90
59148;DHT22;44930;52.878;6.168;2023-03-01T16:55:56;6.40;99.90
59148;DHT22;44930;52.878;6.168;2023-03-01T16:58:22;6.30;99.90
59148;DHT22;44930;52.878;6.168;2023-03-01T17:00:53;6.30;99.90
59148;DHT22;44930;52.878;6.168;2023-03-01T17:03:20;6.20;99.90
59148;DHT22;44930;52.878;6.168;2023-03-01T17:05:46;6.10;99.90
59148;DHT22;44930;52.878;6.168;2023-03-01T17:08:12;5.90;99.90
59148;DHT22;44930;52.878;6.168;2023-03-01T17:10:37;5.90;99.90
59148;DHT22;44930;52.878;6.168;2023-03-01T17:13:03;6.00;99.90
59148;DHT22;44930;52.878;6.168;2023-03-01T17:20:21;5.50;99.90
59148;DHT22;44930;52.878;6.168;2023-03-01T17:27:40;5.30;99.90
59148;DHT22;44930;52.878;6.168;2023-03-01T17:30:07;5.40;99.90
59148;DHT22;44930;52.878;6.168;2023-03-01T17:32:33;5.40;99.90
59148;DHT22;44930;52.878;6.168;2023-03-01T17:34:58;5.30;99.90
59148;DHT22;44930;52.878;6.168;2023-03-01T17:39:50;5.20;99.90
59148;DHT22;44930;52.878;6.168;2023-03-01T17:42:15;5.00;99.90
59148;DHT22;44930;52.878;6.168;2023-03-01T17:47:08;4.90;99.90
59148;DHT22;44930;52.878;6.168;2023-03-01T17:52:00;4.50;99.90
59148;DHT22;44930;52.878;6.168;2023-03-01T17:54:26;4.30;99.90
59148;DHT22;44930;52.878;6.168;2023-03-01T17:56:51;4.30;99.90
59148;DHT22;44930;52.878;6.168;2023-03-01T17:59:17;4.20;99.90
59148;DHT22;44930;52.878;6.168;2023-03-01T18:01:44;4.30;99.90
59148;DHT22;44930;52.878;6.168;2023-03-01T18:04:10;4.20;99.90
59148;DHT22;44930;52.878;6.168;2023-03-01T18:06:36;4.10;99.90
59148;DHT22;44930;52.878;6.168;2023-03-01T18:09:02;4.10;99.90
59148;DHT22;44930;52.878;6.168;2023-03-01T18:11:28;4.20;99.90
59148;DHT22;44930;52.878;6.168;2023-03-01T18:13:54;4.10;99.90
59148;DHT22;44930;52.878;6.168;2023-03-01T18:16:21;4.20;99.90
59148;DHT22;44930;52.878;6.168;2023-03-01T18:18:47;4.10;99.90
59148;DHT22;44930;52.878;6.168;2023-03-01T18:23:39;4.20;99.90
59148;DHT22;44930;52.878;6.168;2023-03-01T18:26:07;4.20;99.90
59148;DHT22;44930;52.878;6.168;2023-03-01T18:28:34;4.20;99.90
59148;DHT22;44930;52.878;6.168;2023-03-01T18:31:02;4.20;99.90
59148;DHT22;44930;52.878;6.168;2023-03-01T18:33:29;4.10;99.90
59148;DHT22;44930;52.878;6.168;2023-03-01T18:35:55;3.80;99.90
59148;DHT22;44930;52.878;6.168;2023-03-01T18:38:22;3.90;99.90
59148;DHT22;44930;52.878;6.168;2023-03-01T18:40:47;4.00;99.90
59148;DHT22;44930;52.878;6.168;2023-03-01T18:43:13;3.80;99.90
59148;DHT22;44930;52.878;6.168;2023-03-01T18:45:39;3.70;99.90
59148;DHT22;44930;52.878;6.168;2023-03-01T18:50:30;3.70;99.90
59148;DHT22;44930;52.878;6.168;2023-03-01T18:52:57;3.70;99.90
59148;DHT22;44930;52.878;6.168;2023-03-01T18:55:23;3.70;99.90
59148;DHT22;44930;52.878;6.168;2023-03-01T18:57:48;3.60;99.90
59148;DHT22;44930;52.878;6.168;2023-03-01T19:00:14;3.60;99.90
59148;DHT22;44930;52.878;6.168;2023-03-01T19:02:40;3.50;99.90
59148;DHT22;44930;52.878;6.168;2023-03-01T19:05:06;3.40;99.90
59148;DHT22;44930;52.878;6.168;2023-03-01T19:07:32;3.50;99.90
59148;DHT22;44930;52.878;6.168;2023-03-01T19:09:57;3.40;99.90
59148;DHT22;44930;52.878;6.168;2023-03-01T19:12:23;3.50;99.90
59148;DHT22;44930;52.878;6.168;2023-03-01T19:17:15;3.30;99.90
59148;DHT22;44930;52.878;6.168;2023-03-01T19:19:41;3.30;99.90
59148;DHT22;44930;52.878;6.168;2023-03-01T19:22:06;3.30;99.90
59148;DHT22;44930;52.878;6.168;2023-03-01T19:24:33;3.20;99.90
59148;DHT22;44930;52.878;6.168;2023-03-01T19:26:59;3.20;99.90
59148;DHT22;44930;52.878;6.168;2023-03-01T19:29:25;3.20;99.90
59148;DHT22;44930;52.878;6.168;2023-03-01T19:31:50;3.20;99.90
59148;DHT22;44930;52.878;6.168;2023-03-01T19:36:43;3.20;99.90
59148;DHT22;44930;52.878;6.168;2023-03-01T19:39:10;3.10;99.90
59148;DHT22;44930;52.878;6.168;2023-03-01T19:41:37;3.10;99.90
59148;DHT22;44930;52.878;6.168;2023-03-01T19:44:03;3.10;99.90
59148;DHT22;44930;52.878;6.168;2023-03-01T19:46:33;3.10;99.90
59148;DHT22;44930;52.878;6.168;2023-03-01T19:48:58;3.00;99.90
59148;DHT22;44930;52.878;6.168;2023-03-01T19:51:26;2.70;99.90
59148;DHT22;44930;52.878;6.168;2023-03-01T19:53:52;3.00;99.90
59148;DHT22;44930;52.878;6.168;2023-03-01T19:56:18;3.00;99.90
59148;DHT22;44930;52.878;6.168;2023-03-01T20:01:15;2.50;99.90
59148;DHT22;44930;52.878;6.168;2023-03-01T20:03:41;2.80;99.90
59148;DHT22;44930;52.878;6.168;2023-03-01T20:06:17;2.80;99.90
59148;DHT22;44930;52.878;6.168;2023-03-01T20:08:44;2.80;99.90
59148;DHT22;44930;52.878;6.168;2023-03-01T20:11:11;2.90;99.90
59148;DHT22;44930;52.878;6.168;2023-03-01T20:16:04;2.90;99.90
59148;DHT22;44930;52.878;6.168;2023-03-01T20:18:30;3.00;99.90
59148;DHT22;44930;52.878;6.168;2023-03-01T20:20:56;3.00;99.90
59148;DHT22;44930;52.878;6.168;2023-03-01T20:23:22;2.90;99.90
59148;DHT22;44930;52.878;6.168;2023-03-01T20:25:48;3.10;99.90
59148;DHT22;44930;52.878;6.168;2023-03-01T20:28:15;3.10;99.90
59148;DHT22;44930;52.878;6.168;2023-03-01T20:30:41;3.10;99.90
59148;DHT22;44930;52.878;6.168;2023-03-01T20:33:06;3.10;99.90
59148;DHT22;44930;52.878;6.168;2023-03-01T20:35:32;3.10;99.90
59148;DHT22;44930;52.878;6.168;2023-03-01T20:38:01;2.70;99.90
59148;DHT22;44930;52.878;6.168;2023-03-01T20:45:20;2.90;99.90
59148;DHT22;44930;52.878;6.168;2023-03-01T20:50:13;2.80;99.90
59148;DHT22;44930;52.878;6.168;2023-03-01T20:52:38;2.70;99.90
59148;DHT22;44930;52.878;6.168;2023-03-01T20:55:04;2.70;99.90
59148;DHT22;44930;52.878;6.168;2023-03-01T20:59:56;2.80;99.90
59148;DHT22;44930;52.878;6.168;2023-03-01T21:04:48;3.00;99.90
59148;DHT22;44930;52.878;6.168;2023-03-01T21:07:13;2.90;99.90
59148;DHT22;44930;52.878;6.168;2023-03-01T21:09:39;3.00;99.90
59148;DHT22;44930;52.878;6.168;2023-03-01T21:12:06;3.10;99.90
59148;DHT22;44930;52.878;6.168;2023-03-01T21:14:31;3.10;99.90
59148;DHT22;44930;52.878;6.168;2023-03-01T21:17:07;3.00;99.90
59148;DHT22;44930;52.878;6.168;2023-03-01T21:19:35;3.10;99.90
59148;DHT22;44930;52.878;6.168;2023-03-01T21:22:01;3.10;99.90
59148;DHT22;44930;52.878;6.168;2023-03-01T21:24:27;3.30;99.90
59148;DHT22;44930;52.878;6.168;2023-03-01T21:29:18;3.20;99.90
59148;DHT22;44930;52.878;6.168;2023-03-01T21:31:44;3.30;99.90
59148;DHT22;44930;52.878;6.168;2023-03-01T21:34:12;3.40;99.90
59148;DHT22;44930;52.878;6.168;2023-03-01T21:36:38;3.10;99.90
59148;DHT22;44930;52.878;6.168;2023-03-01T21:39:05;3.20;99.90
59148;DHT22;44930;52.878;6.168;2023-03-01T21:41:33;3.00;99.90
59148;DHT22;44930;52.878;6.168;2023-03-01T21:44:01;3.10;99.90
59148;DHT22;44930;52.878;6.168;2023-03-01T21:46:29;3.20;99.90
59148;DHT22;44930;52.878;6.168;2023-03-01T21:51:23;3.20;99.90
59148;DHT22;44930;52.878;6.168;2023-03-01T21:53:50;3.30;99.90
59148;DHT22;44930;52.878;6.168;2023-03-01T21:56:18;3.30;99.90
59148;DHT22;44930;52.878;6.168;2023-03-01T21:58:43;3.40;99.90
59148;DHT22;44930;52.878;6.168;2023-03-01T22:01:11;3.30;99.90
59148;DHT22;44930;52.878;6.168;2023-03-01T22:03:37;3.30;99.90
59148;DHT22;44930;52.878;6.168;2023-03-01T22:08:54;3.40;99.90
59148;DHT22;44930;52.878;6.168;2023-03-01T22:11:20;3.30;99.90
59148;DHT22;44930;52.878;6.168;2023-03-01T22:13:48;3.50;99.90
59148;DHT22;44930;52.878;6.168;2023-03-01T22:16:21;3.30;99.90
59148;DHT22;44930;52.878;6.168;2023-03-01T22:21:14;3.40;99.90
59148;DHT22;44930;52.878;6.168;2023-03-01T22:23:40;3.30;99.90
59148;DHT22;44930;52.878;6.168;2023-03-01T22:26:06;3.30;99.90
59148;DHT22;44930;52.878;6.168;2023-03-01T22:28:32;3.30;99.90
59148;DHT22;44930;52.878;6.168;2023-03-01T22:31:02;3.40;99.90
59148;DHT22;44930;52.878;6.168;2023-03-01T22:33:28;3.30;99.90
59148;DHT22;44930;52.878;6.168;2023-03-01T22:35:55;3.30;99.90
59148;DHT22;44930;52.878;6.168;2023-03-01T22:38:21;3.30;99.90
59148;DHT22;44930;52.878;6.168;2023-03-01T22:40:58;3.20;99.90
59148;DHT22;44930;52.878;6.168;2023-03-01T22:43:24;3.40;99.90
59148;DHT22;44930;52.878;6.168;2023-03-01T22:45:50;3.40;99.90
59148;DHT22;44930;52.878;6.168;2023-03-01T22:50:45;3.40;99.90
59148;DHT22;44930;52.878;6.168;2023-03-01T22:53:12;3.30;99.90
59148;DHT22;44930;52.878;6.168;2023-03-01T22:55:38;3.30;99.90
59148;DHT22;44930;52.878;6.168;2023-03-01T22:58:04;3.30;99.90
59148;DHT22;44930;52.878;6.168;2023-03-01T23:00:30;3.20;99.90
59148;DHT22;44930;52.878;6.168;2023-03-01T23:02:56;3.30;99.90
59148;DHT22;44930;52.878;6.168;2023-03-01T23:05:21;3.30;99.90
59148;DHT22;44930;52.878;6.168;2023-03-01T23:07:47;3.30;99.90
59148;DHT22;44930;52.878;6.168;2023-03-01T23:10:14;3.30;99.90
59148;DHT22;44930;52.878;6.168;2023-03-01T23:12:40;3.30;99.90
59148;DHT22;44930;52.878;6.168;2023-03-01T23:15:07;3.40;99.90
59148;DHT22;44930;52.878;6.168;2023-03-01T23:17:33;3.00;99.90
59148;DHT22;44930;52.878;6.168;2023-03-01T23:19:59;3.30;99.90
59148;DHT22;44930;52.878;6.168;2023-03-01T23:22:25;3.30;99.90
59148;DHT22;44930;52.878;6.168;2023-03-01T23:24:50;3.20;99.90
59148;DHT22;44930;52.878;6.168;2023-03-01T23:27:16;3.20;99.90
59148;DHT22;44930;52.878;6.168;2023-03-01T23:29:43;3.20;99.90
59148;DHT22;44930;52.878;6.168;2023-03-01T23:32:09;3.20;99.90
59148;DHT22;44930;52.878;6.168;2023-03-01T23:34:35;3.20;99.90
59148;DHT22;44930;52.878;6.168;2023-03-01T23:37:02;3.20;99.90
59148;DHT22;44930;52.878;6.168;2023-03-01T23:39:28;3.10;99.90
59148;DHT22;44930;52.878;6.168;2023-03-01T23:41:55;3.30;99.90
59148;DHT22;44930;52.878;6.168;2023-03-01T23:44:21;3.20;99.90
59148;DHT22;44930;52.878;6.168;2023-03-01T23:46:48;3.30;99.90
59148;DHT22;44930;52.878;6.168;2023-03-01T23:49:16;3.30;99.90
59148;DHT22;44930;52.878;6.168;2023-03-01T23:51:43;3.20;99.90
59148;DHT22;44930;52.878;6.168;2023-03-01T23:54:10;3.20;99.90
